createdAt,value
2023-05-16T00:01:18.471Z,11.90
2023-05-16T00:06:11.526Z,11.82
2023-05-16T00:11:04.868Z,11.75
2023-05-16T00:15:57.961Z,11.67
2023-05-16T00:20:52.157Z,11.56
2023-05-16T00:25:46.372Z,11.51
2023-05-16T00:30:39.424Z,11.50
2023-05-16T00:35:32.348Z,11.52
2023-05-16T00:40:25.552Z,11.53
2023-05-16T00:45:19.368Z,11.54
2023-05-16T00:50:12.343Z,11.54
2023-05-16T00:55:05.851Z,11.55
2023-05-16T01:00:00.706Z,11.55
2023-05-16T01:04:53.703Z,11.55
2023-05-16T01:09:46.610Z,11.55
2023-05-16T01:14:58.258Z,11.53
2023-05-16T01:20:02.245Z,11.55
2023-05-16T01:25:27.743Z,11.57
2023-05-16T01:30:21.546Z,11.58
2023-05-16T01:35:20.119Z,11.60
2023-05-16T01:40:21.042Z,11.63
2023-05-16T01:45:24.897Z,11.64
2023-05-16T01:50:21.301Z,11.65
2023-05-16T01:55:20.227Z,11.62
2023-05-16T02:00:13.796Z,11.55
2023-05-16T02:05:09.621Z,11.52
2023-05-16T02:10:02.710Z,11.50
2023-05-16T02:14:55.513Z,11.49
2023-05-16T02:19:48.466Z,11.50
2023-05-16T02:24:41.375Z,11.47
2023-05-16T02:29:34.506Z,11.41
2023-05-16T02:34:27.507Z,11.35
2023-05-16T02:39:20.507Z,11.27
2023-05-16T02:44:17.286Z,11.19
2023-05-16T02:49:10.135Z,11.12
2023-05-16T02:54:05.181Z,11.07
2023-05-16T02:58:58.049Z,11.01
2023-05-16T03:03:51.442Z,10.96
2023-05-16T03:08:44.447Z,10.93
2023-05-16T03:13:37.286Z,10.88
2023-05-16T03:18:30.213Z,10.85
2023-05-16T03:23:23.208Z,10.83
2023-05-16T03:28:18.275Z,10.81
2023-05-16T03:33:11.127Z,10.82
2023-05-16T03:38:04.483Z,10.84
2023-05-16T03:42:57.328Z,11.12
2023-05-16T03:47:51.071Z,11.49
2023-05-16T03:52:44.084Z,11.50
2023-05-16T03:57:38.823Z,11.46
2023-05-16T04:02:31.669Z,11.48
2023-05-16T04:07:24.635Z,11.45
2023-05-16T04:12:17.446Z,11.45
2023-05-16T04:17:11.245Z,11.50
2023-05-16T04:22:04.302Z,11.51
2023-05-16T04:26:57.095Z,11.53
2023-05-16T04:31:49.916Z,11.57
2023-05-16T04:36:43.172Z,11.60
2023-05-16T04:41:36.326Z,11.66
2023-05-16T04:46:29.188Z,11.73
2023-05-16T04:51:22.230Z,11.79
2023-05-16T04:56:18.184Z,11.88
2023-05-16T05:01:11.162Z,11.96
2023-05-16T05:06:04.731Z,12.07
2023-05-16T05:10:58.066Z,12.18
2023-05-16T05:15:52.451Z,12.30
2023-05-16T05:20:45.662Z,12.41
2023-05-16T05:25:40.009Z,12.52
2023-05-16T05:30:32.858Z,12.66
2023-05-16T05:35:26.123Z,12.79
2023-05-16T05:40:19.373Z,12.91
2023-05-16T05:45:12.612Z,13.02
2023-05-16T05:50:09.422Z,13.15
2023-05-16T05:55:02.988Z,13.26
2023-05-16T05:59:55.814Z,13.39
2023-05-16T06:04:48.735Z,13.75
2023-05-16T06:09:42.745Z,14.48
2023-05-16T06:14:35.547Z,14.86
2023-05-16T06:19:28.546Z,15.18
2023-05-16T06:24:21.375Z,15.59
2023-05-16T06:29:14.173Z,15.85
2023-05-16T06:34:07.001Z,15.71
2023-05-16T06:38:59.853Z,15.83
2023-05-16T06:43:52.881Z,16.09
2023-05-16T06:48:46.074Z,16.19
2023-05-16T06:53:38.947Z,16.06
2023-05-16T06:58:31.984Z,16.65
2023-05-16T07:03:24.963Z,17.81
2023-05-16T07:08:17.938Z,17.51
2023-05-16T07:13:10.873Z,17.03
2023-05-16T07:18:04.017Z,17.17
2023-05-16T07:22:58.051Z,17.14
2023-05-16T07:27:51.189Z,16.84
2023-05-16T07:32:44.467Z,17.77
2023-05-16T07:37:38.424Z,17.77
2023-05-16T07:42:32.215Z,17.31
2023-05-16T07:47:26.042Z,18.45
2023-05-16T07:52:19.037Z,18.55
2023-05-16T07:57:12.447Z,17.76
2023-05-16T08:02:05.582Z,17.40
2023-05-16T08:06:58.427Z,17.93
2023-05-16T08:11:51.259Z,19.49
2023-05-16T08:16:44.138Z,21.30
2023-05-16T08:21:37.359Z,20.94
2023-05-16T08:26:30.798Z,20.20
2023-05-16T08:31:23.986Z,19.67
2023-05-16T08:36:19.793Z,20.31
2023-05-16T08:41:13.331Z,19.59
2023-05-16T08:46:08.846Z,19.10
2023-05-16T08:51:07.647Z,18.60
2023-05-16T08:56:02.040Z,18.22
2023-05-16T09:00:55.912Z,18.05
2023-05-16T09:05:49.180Z,18.05
2023-05-16T09:10:42.021Z,17.92
2023-05-16T09:15:35.537Z,17.71
2023-05-16T09:20:28.493Z,17.69
2023-05-16T09:25:30.375Z,18.66
2023-05-16T09:30:35.417Z,18.57
2023-05-16T09:40:25.565Z,17.64
2023-05-16T09:45:18.641Z,17.67
2023-05-16T09:50:11.818Z,17.95
2023-05-16T09:55:08.611Z,18.16
2023-05-16T10:00:05.649Z,18.04
2023-05-16T10:04:58.456Z,17.90
2023-05-16T10:09:54.029Z,18.07
2023-05-16T10:14:50.543Z,18.41
2023-05-16T10:19:44.350Z,19.06
2023-05-16T10:24:49.418Z,19.38
2023-05-16T10:29:54.186Z,19.10
2023-05-16T10:34:48.346Z,18.60
2023-05-16T10:39:41.939Z,18.28
2023-05-16T10:44:35.375Z,18.27
2023-05-16T10:49:28.980Z,18.33
2023-05-16T10:54:26.611Z,18.44
2023-05-16T10:59:28.621Z,18.79
2023-05-16T11:04:21.509Z,18.85
2023-05-16T11:09:14.344Z,18.84
2023-05-16T11:14:07.537Z,18.77
2023-05-16T11:19:08.276Z,18.47
2023-05-16T11:24:30.097Z,18.37
2023-05-16T11:29:23.484Z,18.99
2023-05-16T11:34:16.434Z,19.16
2023-05-16T11:39:10.712Z,19.22
2023-05-16T11:44:03.596Z,19.29
2023-05-16T11:48:57.234Z,19.46
2023-05-16T11:53:51.133Z,19.84
2023-05-16T11:58:44.536Z,20.42
2023-05-16T12:03:39.312Z,20.04
2023-05-16T12:08:32.895Z,19.63
2023-05-16T12:13:26.645Z,19.46
2023-05-16T12:18:21.480Z,19.19
2023-05-16T12:23:16.480Z,19.08
2023-05-16T12:28:10.294Z,19.08
2023-05-16T12:33:10.586Z,19.59
2023-05-16T12:38:11.870Z,20.60
2023-05-16T12:43:04.751Z,21.37
2023-05-16T12:47:57.866Z,21.87
2023-05-16T12:52:56.458Z,22.02
2023-05-16T12:57:50.772Z,22.05
2023-05-16T13:02:43.718Z,22.24
2023-05-16T13:07:37.247Z,22.02
2023-05-16T13:12:30.066Z,21.32
2023-05-16T13:17:24.078Z,20.71
2023-05-16T13:22:17.095Z,20.22
2023-05-16T13:27:10.016Z,20.08
2023-05-16T13:32:03.085Z,20.18
2023-05-16T13:36:56.168Z,20.57
2023-05-16T13:41:49.708Z,21.05
2023-05-16T13:46:43.362Z,21.28
2023-05-16T13:51:36.601Z,21.53
2023-05-16T13:56:29.889Z,21.52
2023-05-16T14:01:23.471Z,21.02
2023-05-16T14:06:16.354Z,20.58
2023-05-16T14:11:09.290Z,20.44
2023-05-16T14:16:02.550Z,20.42
2023-05-16T14:20:56.674Z,20.40
2023-05-16T14:25:49.663Z,20.44
2023-05-16T14:30:42.480Z,20.37
2023-05-16T14:35:38.474Z,20.36
2023-05-16T14:40:31.453Z,20.43
2023-05-16T14:45:24.365Z,20.51
2023-05-16T14:50:17.498Z,20.45
2023-05-16T14:55:10.388Z,20.40
2023-05-16T15:00:05.707Z,20.37
2023-05-16T15:04:58.640Z,20.38
2023-05-16T15:09:51.644Z,20.32
2023-05-16T15:14:44.908Z,20.20
2023-05-16T15:19:37.939Z,20.09
2023-05-16T15:24:30.919Z,20.10
2023-05-16T15:29:23.764Z,20.07
2023-05-16T15:34:16.637Z,19.97
2023-05-16T15:39:09.544Z,19.82
2023-05-16T15:44:02.374Z,19.68
2023-05-16T15:48:55.226Z,19.47
2023-05-16T15:53:49.060Z,19.28
2023-05-16T15:58:41.867Z,19.14
2023-05-16T16:03:34.879Z,19.04
2023-05-16T16:08:27.839Z,18.98
2023-05-16T16:13:21.376Z,18.89
2023-05-16T16:18:14.799Z,18.78
2023-05-16T16:23:08.363Z,18.70
2023-05-16T16:28:01.229Z,18.63
2023-05-16T16:32:54.184Z,18.55
2023-05-16T16:37:58.318Z,18.48
2023-05-16T16:42:58.957Z,18.38
2023-05-16T16:47:52.576Z,18.29
2023-05-16T16:52:45.682Z,18.19
2023-05-16T16:57:38.532Z,18.06
2023-05-16T17:02:31.462Z,17.96
2023-05-16T17:07:24.298Z,17.85
2023-05-16T17:12:20.557Z,17.76
2023-05-16T17:17:13.625Z,17.67
2023-05-16T17:22:07.758Z,17.60
2023-05-16T17:27:00.615Z,17.50
2023-05-16T17:31:54.699Z,17.40
2023-05-16T17:36:47.546Z,17.30
2023-05-16T17:41:41.210Z,17.18
2023-05-16T17:46:34.990Z,17.05
2023-05-16T17:51:28.277Z,16.90
2023-05-16T17:56:21.174Z,16.75
2023-05-16T18:01:14.428Z,16.63
2023-05-16T18:06:07.529Z,16.51
2023-05-16T18:11:01.031Z,16.40
2023-05-16T18:15:53.968Z,16.30
2023-05-16T18:20:47.369Z,16.20
2023-05-16T18:25:40.203Z,16.10
2023-05-16T18:30:33.155Z,15.99
2023-05-16T18:35:27.790Z,15.91
2023-05-16T18:40:21.606Z,15.81
2023-05-16T18:45:14.514Z,15.74
2023-05-16T18:50:08.545Z,15.67
2023-05-16T18:55:01.611Z,15.61
2023-05-16T18:59:56.181Z,15.54
2023-05-16T19:04:49.114Z,15.48
2023-05-16T19:09:42.169Z,15.42
2023-05-16T19:14:35.037Z,15.40
2023-05-16T19:19:28.004Z,15.36
2023-05-16T19:24:21.035Z,15.32
2023-05-16T19:29:13.945Z,15.28
2023-05-16T19:34:07.166Z,15.21
2023-05-16T19:39:00.155Z,15.15
2023-05-16T19:43:53.253Z,15.09
2023-05-16T19:48:49.711Z,15.04
2023-05-16T19:53:43.054Z,14.99
2023-05-16T19:58:35.917Z,14.92
2023-05-16T20:03:28.930Z,14.88
2023-05-16T20:08:21.974Z,14.86
2023-05-16T20:13:18.717Z,14.83
2023-05-16T20:18:11.688Z,14.78
2023-05-16T20:23:04.924Z,14.76
2023-05-16T20:27:57.928Z,14.71
2023-05-16T20:32:51.096Z,14.65
2023-05-16T20:37:44.125Z,14.59
2023-05-16T20:42:38.172Z,14.55
2023-05-16T20:47:31.289Z,14.54
2023-05-16T20:52:24.525Z,14.55
2023-05-16T20:57:17.858Z,14.51
2023-05-16T21:02:10.967Z,14.49
2023-05-16T21:07:06.801Z,14.47
2023-05-16T21:12:01.600Z,14.43
2023-05-16T21:16:55.627Z,14.39
2023-05-16T21:21:48.733Z,14.36
2023-05-16T21:26:41.743Z,14.35
2023-05-16T21:31:34.622Z,14.33
2023-05-16T21:36:27.538Z,14.32
2023-05-16T21:41:21.755Z,14.31
2023-05-16T21:46:14.793Z,14.23
2023-05-16T21:51:07.694Z,14.18
2023-05-16T21:56:00.566Z,14.18
2023-05-16T22:01:11.889Z,14.14
2023-05-16T22:06:05.148Z,14.10
2023-05-16T22:10:58.008Z,14.08
2023-05-16T22:16:03.281Z,14.05
2023-05-16T22:20:56.758Z,13.99
2023-05-16T22:25:49.737Z,13.94
2023-05-16T22:30:43.181Z,13.90
2023-05-16T22:35:36.096Z,13.88
2023-05-16T22:40:30.968Z,13.86
2023-05-16T22:45:24.312Z,13.84
2023-05-16T22:50:17.325Z,13.81
2023-05-16T22:55:10.413Z,13.77
2023-05-16T23:00:04.723Z,13.73
2023-05-16T23:04:58.635Z,13.68
2023-05-16T23:09:51.662Z,13.62
2023-05-16T23:14:44.527Z,13.60
2023-05-16T23:19:37.444Z,13.58
2023-05-16T23:24:30.344Z,13.55
2023-05-16T23:29:23.194Z,13.52
2023-05-16T23:34:16.047Z,13.50
2023-05-16T23:39:09.227Z,13.49
2023-05-16T23:44:02.105Z,13.47
2023-05-16T23:48:57.315Z,13.44
2023-05-16T23:53:50.258Z,13.41
2023-05-16T23:58:43.134Z,13.39
